CFG2HD LEIB-EDDF
Flight info
| Callsign | CFG2HD |
|---|---|
| Flight time | 1h 12m |
| Altitude | 38000 |
| Route | KABRE DCT ELTAN N853 LUMAS DCT MAXIR DCT LUSOL DCT BODRU DCT OKTET DCT IRMAR DCT KINES DCT VANAS DCT ESOKO DCT GODRA/N0454F390 DCT LADOL/N0452F380 T163 EMPAX EMPAX5B |
| Aircraft | A320/M-SDE3FGHIRWY/LB1 |
Departure
| Time | 2026-05-06 18:36 |
|---|---|
| Airport | Ibiza Airport (LEIB) |
Arrival
| Time | 2026-05-06 19:49 |
|---|---|
| Airport | Frankfurt Main Airport (EDDF) |
| Time | Latitude | Longitude | Altitude | Speed | Heading |
|---|---|---|---|---|---|
| 2026-05-06 18:15 | 38.87567 | 1.36915 | 9 ft | 0 kts | 333° |
| 2026-05-06 18:26 | 38.87555 | 1.36923 | 11 ft | 4 kts | 330° |
| 2026-05-06 18:26 | 38.87532 | 1.36942 | 9 ft | 4 kts | 319° |
| 2026-05-06 18:26 | 38.87516 | 1.36967 | 11 ft | 4 kts | 286° |
| 2026-05-06 18:27 | 38.87515 | 1.36987 | 12 ft | 0 kts | 241° |
| 2026-05-06 18:28 | 38.87510 | 1.36976 | 10 ft | 4 kts | 242° |
| 2026-05-06 18:28 | 38.87490 | 1.36926 | 9 ft | 9 kts | 242° |
| 2026-05-06 18:28 | 38.87459 | 1.36852 | 8 ft | 7 kts | 242° |
| 2026-05-06 18:28 | 38.87441 | 1.36812 | 8 ft | 4 kts | 229° |
| 2026-05-06 18:29 | 38.87419 | 1.36799 | 8 ft | 3 kts | 194° |
| 2026-05-06 18:29 | 38.87404 | 1.36801 | 8 ft | 0 kts | 166° |
| 2026-05-06 18:30 | 38.87399 | 1.36803 | 8 ft | 5 kts | 165° |
| 2026-05-06 18:30 | 38.87328 | 1.36845 | 9 ft | 14 kts | 153° |
| 2026-05-06 18:30 | 38.87268 | 1.36810 | 9 ft | 0 kts | 237° |
| 2026-05-06 18:31 | 38.87260 | 1.36792 | 9 ft | 6 kts | 239° |
| 2026-05-06 18:31 | 38.87228 | 1.36719 | 9 ft | 13 kts | 241° |
| 2026-05-06 18:32 | 38.87172 | 1.36588 | 8 ft | 18 kts | 241° |
| 2026-05-06 18:32 | 38.87115 | 1.36449 | 8 ft | 17 kts | 242° |
| 2026-05-06 18:32 | 38.87062 | 1.36321 | 8 ft | 16 kts | 242° |
| 2026-05-06 18:32 | 38.87002 | 1.36175 | 8 ft | 21 kts | 242° |
| 2026-05-06 18:33 | 38.86927 | 1.35994 | 8 ft | 24 kts | 242° |
| 2026-05-06 18:33 | 38.86856 | 1.35819 | 8 ft | 18 kts | 242° |
| 2026-05-06 18:33 | 38.86796 | 1.35768 | 8 ft | 10 kts | 172° |
| 2026-05-06 18:33 | 38.86780 | 1.35775 | 8 ft | 0 kts | 157° |
| 2026-05-06 18:34 | 38.86779 | 1.35776 | 8 ft | 1 kts | 156° |
| 2026-05-06 18:34 | 38.86747 | 1.35819 | 6 ft | 13 kts | 117° |
| 2026-05-06 18:34 | 38.86724 | 1.35952 | 8 ft | 16 kts | 77° |
| 2026-05-06 18:35 | 38.86734 | 1.35983 | 6 ft | 0 kts | 65° |
| 2026-05-06 18:35 | 38.86735 | 1.35986 | 6 ft | 3 kts | 65° |
| 2026-05-06 18:35 | 38.86830 | 1.36217 | 7 ft | 66 kts | 62° |
| 2026-05-06 18:36 | 38.87151 | 1.36994 | 11 ft | 128 kts | 62° |
| 2026-05-06 18:36 | 38.87620 | 1.38156 | 278 ft | 152 kts | 64° |
| 2026-05-06 18:36 | 38.88105 | 1.39378 | 945 ft | 155 kts | 66° |
| 2026-05-06 18:36 | 38.88477 | 1.40677 | 1631 ft | 155 kts | 79° |
| 2026-05-06 18:37 | 38.88607 | 1.42042 | 2299 ft | 153 kts | 84° |
| 2026-05-06 18:37 | 38.88727 | 1.42971 | 2630 ft | 163 kts | 79° |
| 2026-05-06 18:37 | 38.89104 | 1.45016 | 3049 ft | 193 kts | 77° |
| 2026-05-06 18:37 | 38.89446 | 1.46788 | 3408 ft | 214 kts | 77° |
| 2026-05-06 18:38 | 38.89805 | 1.48667 | 4178 ft | 217 kts | 77° |
| 2026-05-06 18:38 | 38.90165 | 1.50566 | 4991 ft | 220 kts | 77° |
| 2026-05-06 18:38 | 38.90525 | 1.52495 | 5748 ft | 225 kts | 77° |
| 2026-05-06 18:38 | 38.90779 | 1.54498 | 6500 ft | 230 kts | 89° |
| 2026-05-06 18:39 | 38.90643 | 1.56654 | 6879 ft | 255 kts | 97° |
| 2026-05-06 18:39 | 38.90415 | 1.59014 | 7311 ft | 276 kts | 97° |
| 2026-05-06 18:39 | 38.90173 | 1.61506 | 8028 ft | 286 kts | 96° |
| 2026-05-06 18:40 | 38.89500 | 1.66631 | 9662 ft | 298 kts | 109° |
| 2026-05-06 18:40 | 38.88669 | 1.69118 | 10226 ft | 313 kts | 111° |
| 2026-05-06 18:40 | 38.88275 | 1.71946 | 10481 ft | 335 kts | 86° |
| 2026-05-06 18:40 | 38.88896 | 1.74894 | 10685 ft | 355 kts | 59° |
| 2026-05-06 18:41 | 38.90389 | 1.77522 | 10855 ft | 376 kts | 49° |
| 2026-05-06 18:41 | 38.92097 | 1.80187 | 10992 ft | 397 kts | 49° |
| 2026-05-06 18:41 | 38.93894 | 1.82940 | 11404 ft | 406 kts | 48° |
| 2026-05-06 18:41 | 38.95722 | 1.85735 | 11907 ft | 411 kts | 49° |
| 2026-05-06 18:42 | 38.97565 | 1.88565 | 12417 ft | 415 kts | 49° |
| 2026-05-06 18:42 | 38.99419 | 1.91435 | 12944 ft | 420 kts | 49° |
| 2026-05-06 18:42 | 39.01287 | 1.94362 | 13471 ft | 426 kts | 50° |
| 2026-05-06 18:42 | 39.03172 | 1.97335 | 13978 ft | 431 kts | 50° |
| 2026-05-06 18:43 | 39.05072 | 2.00341 | 14450 ft | 436 kts | 50° |
| 2026-05-06 18:43 | 39.06992 | 2.03380 | 14936 ft | 439 kts | 50° |
| 2026-05-06 18:43 | 39.08930 | 2.06443 | 15428 ft | 443 kts | 50° |
| 2026-05-06 18:43 | 39.10887 | 2.09526 | 15931 ft | 446 kts | 49° |
| 2026-05-06 18:44 | 39.12859 | 2.12627 | 16444 ft | 448 kts | 49° |
| 2026-05-06 18:44 | 39.14839 | 2.15741 | 16960 ft | 451 kts | 49° |
| 2026-05-06 18:44 | 39.16829 | 2.18876 | 17493 ft | 453 kts | 49° |
| 2026-05-06 18:44 | 39.18826 | 2.22029 | 18016 ft | 455 kts | 49° |
| 2026-05-06 18:45 | 39.20829 | 2.25198 | 18513 ft | 457 kts | 49° |
| 2026-05-06 18:45 | 39.22838 | 2.28381 | 18979 ft | 459 kts | 49° |
| 2026-05-06 18:45 | 39.24870 | 2.31606 | 19124 ft | 469 kts | 49° |
| 2026-05-06 18:45 | 39.26239 | 2.33784 | 19243 ft | 474 kts | 49° |
| 2026-05-06 18:46 | 39.29035 | 2.38232 | 19615 ft | 480 kts | 49° |
| 2026-05-06 18:46 | 39.31145 | 2.41593 | 19915 ft | 483 kts | 49° |
| 2026-05-06 18:46 | 39.33265 | 2.44971 | 20231 ft | 486 kts | 49° |
| 2026-05-06 18:46 | 39.35399 | 2.48371 | 20530 ft | 489 kts | 49° |
| 2026-05-06 18:47 | 39.37547 | 2.51792 | 20811 ft | 491 kts | 49° |
| 2026-05-06 18:47 | 39.39707 | 2.55233 | 21086 ft | 494 kts | 49° |
| 2026-05-06 18:47 | 39.41878 | 2.58696 | 21354 ft | 497 kts | 49° |
| 2026-05-06 18:47 | 39.44057 | 2.62188 | 21612 ft | 500 kts | 50° |
| 2026-05-06 18:48 | 39.46242 | 2.65699 | 21870 ft | 503 kts | 50° |
| 2026-05-06 18:48 | 39.51486 | 2.74124 | 22387 ft | 510 kts | 50° |
| 2026-05-06 18:48 | 39.54563 | 2.79074 | 22709 ft | 513 kts | 50° |
| 2026-05-06 18:48 | 39.56804 | 2.82684 | 22989 ft | 515 kts | 50° |
| 2026-05-06 18:49 | 39.59054 | 2.86309 | 23225 ft | 517 kts | 50° |
| 2026-05-06 18:49 | 39.61309 | 2.89946 | 23425 ft | 519 kts | 50° |
| 2026-05-06 18:49 | 39.63573 | 2.93604 | 23608 ft | 521 kts | 50° |
| 2026-05-06 18:49 | 39.65842 | 2.97275 | 23762 ft | 522 kts | 50° |
| 2026-05-06 18:50 | 39.67350 | 2.99719 | 23857 ft | 524 kts | 50° |
| 2026-05-06 18:50 | 39.69624 | 3.03415 | 23995 ft | 525 kts | 50° |
| 2026-05-06 18:50 | 39.71906 | 3.07123 | 24108 ft | 526 kts | 50° |
| 2026-05-06 18:50 | 39.74191 | 3.10839 | 24254 ft | 526 kts | 50° |
| 2026-05-06 18:51 | 39.76504 | 3.14604 | 24448 ft | 526 kts | 50° |
| 2026-05-06 18:51 | 39.78780 | 3.18312 | 24667 ft | 524 kts | 50° |
| 2026-05-06 18:51 | 39.81025 | 3.21968 | 24882 ft | 524 kts | 50° |
| 2026-05-06 18:51 | 39.83324 | 3.25721 | 25054 ft | 524 kts | 50° |
| 2026-05-06 18:52 | 39.85593 | 3.29429 | 25233 ft | 524 kts | 50° |
| 2026-05-06 18:52 | 39.87858 | 3.33142 | 25416 ft | 524 kts | 50° |
| 2026-05-06 18:52 | 39.90093 | 3.36811 | 25602 ft | 524 kts | 50° |
| 2026-05-06 18:52 | 39.92356 | 3.40528 | 25795 ft | 524 kts | 50° |
| 2026-05-06 18:53 | 39.94620 | 3.44253 | 25991 ft | 524 kts | 50° |
| 2026-05-06 18:53 | 39.96883 | 3.47977 | 26200 ft | 524 kts | 50° |
| 2026-05-06 18:53 | 39.99146 | 3.51702 | 26435 ft | 524 kts | 50° |
| 2026-05-06 18:53 | 40.01405 | 3.55421 | 26652 ft | 523 kts | 50° |
| 2026-05-06 18:54 | 40.03667 | 3.59149 | 26862 ft | 524 kts | 50° |
| 2026-05-06 18:54 | 40.05925 | 3.62878 | 27069 ft | 524 kts | 50° |
| 2026-05-06 18:54 | 40.08209 | 3.66660 | 27287 ft | 524 kts | 50° |
| 2026-05-06 18:54 | 40.10433 | 3.70349 | 27509 ft | 524 kts | 50° |
| 2026-05-06 18:55 | 40.12715 | 3.74138 | 27738 ft | 524 kts | 50° |
| 2026-05-06 18:55 | 40.14939 | 3.77831 | 27958 ft | 524 kts | 50° |
| 2026-05-06 18:55 | 40.17193 | 3.81577 | 28188 ft | 524 kts | 50° |
| 2026-05-06 18:55 | 40.19445 | 3.85323 | 28436 ft | 524 kts | 50° |
| 2026-05-06 18:56 | 40.21699 | 3.89075 | 28668 ft | 524 kts | 50° |
| 2026-05-06 18:56 | 40.23951 | 3.92830 | 28905 ft | 525 kts | 50° |
| 2026-05-06 18:56 | 40.26203 | 3.96589 | 29149 ft | 525 kts | 50° |
| 2026-05-06 18:56 | 40.28454 | 4.00349 | 29396 ft | 525 kts | 50° |
| 2026-05-06 18:57 | 40.30702 | 4.04115 | 29643 ft | 525 kts | 50° |
| 2026-05-06 18:57 | 40.34113 | 4.09853 | 30009 ft | 525 kts | 50° |
| 2026-05-06 18:57 | 40.43089 | 4.24962 | 30886 ft | 525 kts | 50° |
| 2026-05-06 18:57 | 40.51488 | 4.35132 | 31559 ft | 513 kts | 24° |
| 2026-05-06 18:58 | 40.54688 | 4.37129 | 31787 ft | 506 kts | 15° |
| 2026-05-06 18:58 | 40.61271 | 4.39349 | 32223 ft | 494 kts | 3° |
| 2026-05-06 18:58 | 40.72862 | 4.42122 | 32989 ft | 493 kts | 3° |
| 2026-05-06 18:58 | 40.76238 | 4.42933 | 33219 ft | 493 kts | 3° |
| 2026-05-06 18:59 | 40.79607 | 4.43743 | 33448 ft | 492 kts | 3° |
| 2026-05-06 18:59 | 40.82974 | 4.44555 | 33702 ft | 492 kts | 3° |
| 2026-05-06 18:59 | 40.86345 | 4.45369 | 33903 ft | 492 kts | 3° |
| 2026-05-06 18:59 | 40.99369 | 4.48510 | 34649 ft | 492 kts | 3° |
| 2026-05-06 19:00 | 41.12820 | 4.51800 | 35468 ft | 490 kts | 4° |
| 2026-05-06 19:00 | 41.26218 | 4.55059 | 36175 ft | 490 kts | 4° |
| 2026-05-06 19:00 | 41.39608 | 4.58337 | 36777 ft | 489 kts | 4° |
| 2026-05-06 19:00 | 41.53014 | 4.61634 | 37345 ft | 489 kts | 5° |
| 2026-05-06 19:01 | 41.66390 | 4.64954 | 37911 ft | 488 kts | 5° |
| 2026-05-06 19:01 | 41.79150 | 4.71409 | 38210 ft | 496 kts | 28° |
| 2026-05-06 19:01 | 41.91108 | 4.80975 | 38165 ft | 497 kts | 27° |
| 2026-05-06 19:02 | 42.14998 | 5.00313 | 37979 ft | 503 kts | 27° |
| 2026-05-06 19:02 | 42.26940 | 5.10041 | 37847 ft | 505 kts | 27° |
| 2026-05-06 19:02 | 42.38866 | 5.19801 | 37749 ft | 506 kts | 27° |
| 2026-05-06 19:03 | 42.62657 | 5.39406 | 37782 ft | 500 kts | 28° |
| 2026-05-06 19:03 | 42.74532 | 5.49271 | 37900 ft | 498 kts | 28° |
| 2026-05-06 19:03 | 42.86416 | 5.59181 | 38025 ft | 497 kts | 28° |
| 2026-05-06 19:04 | 43.10152 | 5.79111 | 38121 ft | 498 kts | 28° |
| 2026-05-06 19:04 | 43.22024 | 5.89151 | 38020 ft | 502 kts | 28° |
| 2026-05-06 19:04 | 43.33906 | 5.99247 | 37869 ft | 506 kts | 29° |
| 2026-05-06 19:04 | 43.46830 | 6.04804 | 37803 ft | 488 kts | 358° |
| 2026-05-06 19:05 | 43.60359 | 6.06136 | 37667 ft | 490 kts | 359° |
| 2026-05-06 19:05 | 43.86718 | 6.14399 | 38024 ft | 500 kts | 24° |
| 2026-05-06 19:06 | 44.11814 | 6.31531 | 38111 ft | 499 kts | 23° |
| 2026-05-06 19:06 | 44.36792 | 6.48781 | 37958 ft | 502 kts | 23° |
| 2026-05-06 19:06 | 44.49296 | 6.57514 | 37834 ft | 507 kts | 24° |
| 2026-05-06 19:07 | 44.61762 | 6.66200 | 37792 ft | 505 kts | 24° |
| 2026-05-06 19:07 | 44.74221 | 6.74964 | 37666 ft | 504 kts | 24° |
| 2026-05-06 19:07 | 44.87478 | 6.78562 | 37698 ft | 483 kts | 351° |
| 2026-05-06 19:07 | 45.00868 | 6.77642 | 37832 ft | 481 kts | 353° |
| 2026-05-06 19:08 | 45.14286 | 6.76795 | 37982 ft | 479 kts | 353° |
| 2026-05-06 19:08 | 45.27710 | 6.75902 | 38095 ft | 480 kts | 353° |
| 2026-05-06 19:08 | 45.41158 | 6.75080 | 38074 ft | 485 kts | 358° |
| 2026-05-06 19:08 | 45.53931 | 6.81556 | 37991 ft | 498 kts | 28° |
| 2026-05-06 19:09 | 45.65966 | 6.91476 | 37757 ft | 505 kts | 28° |
| 2026-05-06 19:09 | 45.89922 | 7.11542 | 37681 ft | 501 kts | 28° |
| 2026-05-06 19:10 | 46.13837 | 7.31823 | 37870 ft | 495 kts | 29° |
| 2026-05-06 19:10 | 46.37624 | 7.52157 | 38078 ft | 492 kts | 29° |
| 2026-05-06 19:11 | 46.61313 | 7.72596 | 38061 ft | 494 kts | 28° |
| 2026-05-06 19:11 | 46.73516 | 7.81840 | 37959 ft | 496 kts | 25° |
| 2026-05-06 19:11 | 46.85693 | 7.91158 | 37842 ft | 498 kts | 26° |
| 2026-05-06 19:11 | 46.97830 | 8.00590 | 37738 ft | 498 kts | 26° |
| 2026-05-06 19:12 | 47.09925 | 8.10007 | 37695 ft | 496 kts | 26° |
| 2026-05-06 19:12 | 47.34046 | 8.28942 | 37801 ft | 488 kts | 27° |
| 2026-05-06 19:12 | 47.46052 | 8.38415 | 37915 ft | 487 kts | 27° |
| 2026-05-06 19:13 | 47.58063 | 8.47978 | 38052 ft | 485 kts | 27° |
| 2026-05-06 19:13 | 47.81969 | 8.67147 | 38041 ft | 486 kts | 28° |
| 2026-05-06 19:13 | 47.87160 | 8.71331 | 37770 ft | 490 kts | 28° |
| 2026-05-06 19:14 | 47.90157 | 8.73755 | 37917 ft | 491 kts | 28° |
| 2026-05-06 19:14 | 47.96177 | 8.78629 | 37923 ft | 493 kts | 28° |
| 2026-05-06 19:15 | 48.02207 | 8.83526 | 37923 ft | 493 kts | 28° |
| 2026-05-06 19:15 | 48.08232 | 8.88439 | 37918 ft | 493 kts | 28° |
| 2026-05-06 19:15 | 48.11227 | 8.90884 | 37399 ft | 490 kts | 28° |
| 2026-05-06 19:16 | 48.14246 | 8.93218 | 37182 ft | 488 kts | 22° |
| 2026-05-06 19:16 | 48.17442 | 8.94944 | 37025 ft | 489 kts | 14° |
| 2026-05-06 19:16 | 48.20771 | 8.95953 | 36869 ft | 488 kts | 5° |
| 2026-05-06 19:16 | 48.24150 | 8.96471 | 36711 ft | 489 kts | 4° |
| 2026-05-06 19:17 | 48.27532 | 8.96976 | 36557 ft | 489 kts | 4° |
| 2026-05-06 19:17 | 48.30910 | 8.97486 | 36403 ft | 484 kts | 4° |
| 2026-05-06 19:17 | 48.34225 | 8.97992 | 36245 ft | 474 kts | 4° |
| 2026-05-06 19:17 | 48.37496 | 8.98492 | 35783 ft | 472 kts | 4° |
| 2026-05-06 19:18 | 48.40749 | 8.98990 | 35265 ft | 467 kts | 4° |
| 2026-05-06 19:18 | 48.43970 | 8.99485 | 34761 ft | 464 kts | 4° |
| 2026-05-06 19:18 | 48.47167 | 8.99977 | 34268 ft | 460 kts | 4° |
| 2026-05-06 19:18 | 48.50344 | 9.00462 | 33754 ft | 457 kts | 4° |
| 2026-05-06 19:19 | 48.53495 | 9.00940 | 33177 ft | 454 kts | 4° |
| 2026-05-06 19:19 | 48.56585 | 9.01408 | 32619 ft | 451 kts | 4° |
| 2026-05-06 19:19 | 48.59695 | 9.01881 | 32080 ft | 447 kts | 5° |
| 2026-05-06 19:19 | 48.62796 | 9.02358 | 31839 ft | 438 kts | 5° |
| 2026-05-06 19:20 | 48.65799 | 9.02921 | 31771 ft | 435 kts | 7° |
| 2026-05-06 19:20 | 48.68810 | 9.03595 | 31083 ft | 439 kts | 8° |
| 2026-05-06 19:20 | 48.71786 | 9.04338 | 30428 ft | 440 kts | 9° |
| 2026-05-06 19:20 | 48.74803 | 9.05126 | 29732 ft | 440 kts | 10° |
| 2026-05-06 19:21 | 48.77822 | 9.05912 | 28956 ft | 440 kts | 9° |
| 2026-05-06 19:21 | 48.80832 | 9.06673 | 28203 ft | 439 kts | 9° |
| 2026-05-06 19:21 | 48.83841 | 9.07411 | 27468 ft | 437 kts | 9° |
| 2026-05-06 19:21 | 48.86840 | 9.08130 | 26764 ft | 435 kts | 9° |
| 2026-05-06 19:22 | 48.89831 | 9.08793 | 26062 ft | 433 kts | 7° |
| 2026-05-06 19:22 | 48.92818 | 9.09301 | 25376 ft | 431 kts | 6° |
| 2026-05-06 19:22 | 48.95797 | 9.09700 | 24698 ft | 428 kts | 5° |
| 2026-05-06 19:22 | 48.98755 | 9.10051 | 24108 ft | 424 kts | 5° |
| 2026-05-06 19:23 | 49.01657 | 9.10393 | 23883 ft | 411 kts | 5° |
| 2026-05-06 19:23 | 49.04452 | 9.10740 | 23830 ft | 394 kts | 5° |
| 2026-05-06 19:23 | 49.07124 | 9.11094 | 23846 ft | 377 kts | 6° |
| 2026-05-06 19:23 | 49.09706 | 9.11458 | 23848 ft | 371 kts | 6° |
| 2026-05-06 19:24 | 49.12264 | 9.11829 | 23793 ft | 368 kts | 6° |
| 2026-05-06 19:24 | 49.14826 | 9.12205 | 23020 ft | 376 kts | 6° |
| 2026-05-06 19:24 | 49.17492 | 9.12594 | 21765 ft | 394 kts | 6° |
| 2026-05-06 19:24 | 49.20271 | 9.12999 | 20581 ft | 409 kts | 5° |
| 2026-05-06 19:25 | 49.23146 | 9.13416 | 19451 ft | 421 kts | 5° |
| 2026-05-06 19:25 | 49.26094 | 9.13841 | 18448 ft | 429 kts | 5° |
| 2026-05-06 19:25 | 49.29047 | 9.14414 | 17649 ft | 427 kts | 11° |
| 2026-05-06 19:25 | 49.31940 | 9.15427 | 16822 ft | 426 kts | 13° |
| 2026-05-06 19:26 | 49.34828 | 9.16453 | 16011 ft | 425 kts | 13° |
| 2026-05-06 19:26 | 49.37705 | 9.17474 | 15229 ft | 424 kts | 12° |
| 2026-05-06 19:26 | 49.40570 | 9.18485 | 14471 ft | 422 kts | 13° |
| 2026-05-06 19:26 | 49.43421 | 9.19488 | 13714 ft | 419 kts | 12° |
| 2026-05-06 19:27 | 49.46257 | 9.20491 | 12894 ft | 416 kts | 12° |
| 2026-05-06 19:27 | 49.49066 | 9.21494 | 12083 ft | 413 kts | 12° |
| 2026-05-06 19:27 | 49.51853 | 9.22492 | 11295 ft | 409 kts | 12° |
| 2026-05-06 19:27 | 49.54577 | 9.23467 | 10943 ft | 394 kts | 12° |
| 2026-05-06 19:28 | 49.57180 | 9.24399 | 10800 ft | 374 kts | 12° |
| 2026-05-06 19:28 | 49.59633 | 9.25279 | 10826 ft | 351 kts | 12° |
| 2026-05-06 19:28 | 49.61948 | 9.26113 | 10821 ft | 333 kts | 12° |
| 2026-05-06 19:28 | 49.64143 | 9.26902 | 10820 ft | 315 kts | 12° |
| 2026-05-06 19:29 | 49.66231 | 9.27647 | 10739 ft | 303 kts | 11° |
| 2026-05-06 19:29 | 49.68271 | 9.28372 | 10433 ft | 299 kts | 11° |
| 2026-05-06 19:29 | 49.70292 | 9.29096 | 10082 ft | 297 kts | 11° |
| 2026-05-06 19:29 | 49.72300 | 9.29819 | 9834 ft | 296 kts | 11° |
| 2026-05-06 19:30 | 49.74309 | 9.30541 | 9820 ft | 297 kts | 11° |
| 2026-05-06 19:30 | 49.76326 | 9.31267 | 9822 ft | 298 kts | 11° |
| 2026-05-06 19:30 | 49.78342 | 9.31993 | 9822 ft | 298 kts | 11° |
| 2026-05-06 19:30 | 49.80360 | 9.32724 | 9822 ft | 298 kts | 11° |
| 2026-05-06 19:31 | 49.82375 | 9.33453 | 9824 ft | 298 kts | 11° |
| 2026-05-06 19:31 | 49.84395 | 9.34178 | 9739 ft | 297 kts | 11° |
| 2026-05-06 19:31 | 49.88441 | 9.34439 | 8932 ft | 290 kts | 351° |
| 2026-05-06 19:32 | 49.90438 | 9.34075 | 8537 ft | 288 kts | 351° |
| 2026-05-06 19:32 | 49.91755 | 9.33840 | 8275 ft | 287 kts | 351° |
| 2026-05-06 19:32 | 49.93729 | 9.33491 | 7901 ft | 285 kts | 351° |
| 2026-05-06 19:32 | 49.95688 | 9.33145 | 7810 ft | 284 kts | 351° |
| 2026-05-06 19:33 | 49.97632 | 9.32640 | 7814 ft | 281 kts | 338° |
| 2026-05-06 19:33 | 49.99258 | 9.31064 | 7819 ft | 275 kts | 310° |
| 2026-05-06 19:33 | 50.00204 | 9.28554 | 7820 ft | 269 kts | 283° |
| 2026-05-06 19:33 | 50.00279 | 9.25687 | 7822 ft | 267 kts | 259° |
| 2026-05-06 19:34 | 49.99854 | 9.22878 | 7826 ft | 268 kts | 254° |
| 2026-05-06 19:34 | 49.99368 | 9.20086 | 7823 ft | 267 kts | 254° |
| 2026-05-06 19:34 | 49.98875 | 9.17299 | 7824 ft | 267 kts | 254° |
| 2026-05-06 19:34 | 49.98380 | 9.14513 | 7824 ft | 268 kts | 254° |
| 2026-05-06 19:35 | 49.97883 | 9.11729 | 7832 ft | 267 kts | 254° |
| 2026-05-06 19:35 | 49.97389 | 9.08955 | 7832 ft | 266 kts | 254° |
| 2026-05-06 19:35 | 49.96895 | 9.06183 | 7837 ft | 266 kts | 254° |
| 2026-05-06 19:35 | 49.96403 | 9.03410 | 7840 ft | 266 kts | 254° |
| 2026-05-06 19:36 | 49.95911 | 9.00645 | 7758 ft | 264 kts | 254° |
| 2026-05-06 19:36 | 49.95423 | 8.97909 | 7328 ft | 263 kts | 254° |
| 2026-05-06 19:36 | 49.94936 | 8.95179 | 6908 ft | 261 kts | 254° |
| 2026-05-06 19:36 | 49.94739 | 8.92408 | 6522 ft | 261 kts | 277° |
| 2026-05-06 19:37 | 49.95409 | 8.89811 | 6110 ft | 264 kts | 304° |
| 2026-05-06 19:37 | 49.96825 | 8.88010 | 5672 ft | 269 kts | 333° |
| 2026-05-06 19:37 | 49.98659 | 8.87459 | 5242 ft | 273 kts | 1° |
| 2026-05-06 19:37 | 50.00476 | 8.88322 | 4810 ft | 277 kts | 30° |
| 2026-05-06 19:38 | 50.01870 | 8.90360 | 4370 ft | 277 kts | 51° |
| 2026-05-06 19:38 | 50.03013 | 8.92762 | 4043 ft | 274 kts | 53° |
| 2026-05-06 19:38 | 50.04103 | 8.95196 | 4010 ft | 275 kts | 58° |
| 2026-05-06 19:38 | 50.04819 | 8.97868 | 4008 ft | 259 kts | 72° |
| 2026-05-06 19:39 | 50.05319 | 9.00480 | 4008 ft | 247 kts | 73° |
| 2026-05-06 19:39 | 50.05787 | 9.03037 | 4008 ft | 245 kts | 74° |
| 2026-05-06 19:39 | 50.06254 | 9.05588 | 4007 ft | 245 kts | 74° |
| 2026-05-06 19:39 | 50.06719 | 9.08139 | 4008 ft | 244 kts | 74° |
| 2026-05-06 19:40 | 50.07178 | 9.10678 | 4004 ft | 244 kts | 74° |
| 2026-05-06 19:40 | 50.07634 | 9.13208 | 3999 ft | 242 kts | 73° |
| 2026-05-06 19:40 | 50.08416 | 9.15495 | 4007 ft | 240 kts | 44° |
| 2026-05-06 19:40 | 50.09816 | 9.16804 | 4000 ft | 236 kts | 11° |
| 2026-05-06 19:41 | 50.11415 | 9.16750 | 3991 ft | 230 kts | 338° |
| 2026-05-06 19:41 | 50.12701 | 9.15383 | 4000 ft | 224 kts | 305° |
| 2026-05-06 19:41 | 50.13292 | 9.13184 | 4002 ft | 222 kts | 279° |
| 2026-05-06 19:41 | 50.13482 | 9.10786 | 4005 ft | 223 kts | 274° |
| 2026-05-06 19:42 | 50.13616 | 9.08374 | 4005 ft | 224 kts | 274° |
| 2026-05-06 19:42 | 50.13743 | 9.05946 | 4005 ft | 224 kts | 274° |
| 2026-05-06 19:42 | 50.13870 | 9.03528 | 4007 ft | 224 kts | 274° |
| 2026-05-06 19:42 | 50.13927 | 9.01144 | 4004 ft | 223 kts | 262° |
| 2026-05-06 19:43 | 50.13507 | 8.98821 | 4010 ft | 223 kts | 250° |
| 2026-05-06 19:43 | 50.12959 | 8.96549 | 4011 ft | 224 kts | 250° |
| 2026-05-06 19:43 | 50.12416 | 8.94271 | 4013 ft | 223 kts | 250° |
| 2026-05-06 19:43 | 50.11903 | 8.92089 | 4007 ft | 207 kts | 251° |
| 2026-05-06 19:44 | 50.11377 | 8.89847 | 4026 ft | 229 kts | 250° |
| 2026-05-06 19:44 | 50.10832 | 8.87527 | 4014 ft | 222 kts | 250° |
| 2026-05-06 19:44 | 50.10319 | 8.85344 | 3938 ft | 210 kts | 250° |
| 2026-05-06 19:44 | 50.09829 | 8.83262 | 3715 ft | 206 kts | 251° |
| 2026-05-06 19:45 | 50.09331 | 8.81148 | 3453 ft | 204 kts | 251° |
| 2026-05-06 19:45 | 50.08850 | 8.79109 | 3194 ft | 203 kts | 251° |
| 2026-05-06 19:45 | 50.08373 | 8.77088 | 2931 ft | 195 kts | 251° |
| 2026-05-06 19:45 | 50.07912 | 8.75137 | 2653 ft | 189 kts | 252° |
| 2026-05-06 19:46 | 50.07467 | 8.73255 | 2402 ft | 182 kts | 252° |
| 2026-05-06 19:46 | 50.07043 | 8.71465 | 2162 ft | 170 kts | 253° |
| 2026-05-06 19:46 | 50.06646 | 8.69790 | 1955 ft | 162 kts | 253° |
| 2026-05-06 19:46 | 50.06264 | 8.68176 | 1737 ft | 157 kts | 252° |
| 2026-05-06 19:47 | 50.05888 | 8.66589 | 1508 ft | 149 kts | 252° |
| 2026-05-06 19:47 | 50.05541 | 8.65127 | 1308 ft | 140 kts | 252° |
| 2026-05-06 19:47 | 50.05206 | 8.63717 | 1107 ft | 139 kts | 252° |
| 2026-05-06 19:47 | 50.04874 | 8.62319 | 917 ft | 137 kts | 252° |
| 2026-05-06 19:48 | 50.04543 | 8.60917 | 735 ft | 135 kts | 253° |
| 2026-05-06 19:48 | 50.04232 | 8.59586 | 530 ft | 127 kts | 251° |
| 2026-05-06 19:48 | 50.03931 | 8.58344 | 371 ft | 115 kts | 249° |
| 2026-05-06 19:48 | 50.03710 | 8.57416 | 357 ft | 67 kts | 249° |
| 2026-05-06 19:49 | 50.03586 | 8.56892 | 356 ft | 46 kts | 249° |
| 2026-05-06 19:49 | 50.03484 | 8.56458 | 353 ft | 40 kts | 250° |
| 2026-05-06 19:49 | 50.03439 | 8.56061 | 352 ft | 36 kts | 275° |
| 2026-05-06 19:49 | 50.03449 | 8.55935 | 353 ft | 0 kts | 281° |
| 2026-05-06 19:50 | 50.03453 | 8.55902 | 348 ft | 9 kts | 281° |
| 2026-05-06 19:50 | 50.03473 | 8.55738 | 348 ft | 21 kts | 279° |
| 2026-05-06 19:51 | 50.03491 | 8.55494 | 353 ft | 24 kts | 265° |
| 2026-05-06 19:51 | 50.03439 | 8.55239 | 347 ft | 26 kts | 251° |
| 2026-05-06 19:51 | 50.03372 | 8.54964 | 344 ft | 28 kts | 250° |
| 2026-05-06 19:51 | 50.03301 | 8.54669 | 336 ft | 28 kts | 249° |
| 2026-05-06 19:52 | 50.03304 | 8.54489 | 339 ft | 15 kts | 334° |
| 2026-05-06 19:52 | 50.03406 | 8.54427 | 337 ft | 17 kts | 339° |
| 2026-05-06 19:52 | 50.03513 | 8.54365 | 345 ft | 14 kts | 340° |
| 2026-05-06 19:52 | 50.03548 | 8.54345 | 345 ft | 0 kts | 339° |
| 2026-05-06 19:56 | 50.03568 | 8.54334 | 350 ft | 7 kts | 339° |
| 2026-05-06 19:56 | 50.03631 | 8.54308 | 346 ft | 12 kts | 6° |
| 2026-05-06 19:56 | 50.03685 | 8.54425 | 348 ft | 16 kts | 68° |
| 2026-05-06 19:56 | 50.03732 | 8.54623 | 350 ft | 25 kts | 69° |
| 2026-05-06 19:57 | 50.03807 | 8.54935 | 351 ft | 36 kts | 70° |
| 2026-05-06 19:57 | 50.03908 | 8.55347 | 350 ft | 43 kts | 69° |
| 2026-05-06 19:57 | 50.04009 | 8.55776 | 350 ft | 34 kts | 70° |
| 2026-05-06 19:57 | 50.04106 | 8.55957 | 356 ft | 22 kts | 345° |
| 2026-05-06 19:58 | 50.04200 | 8.55908 | 359 ft | 6 kts | 341° |
| 2026-05-06 19:58 | 50.04217 | 8.55902 | 358 ft | 1 kts | 358° |
| 2026-05-06 19:58 | 50.04245 | 8.55910 | 359 ft | 7 kts | 13° |
| 2026-05-06 19:58 | 50.04262 | 8.55917 | 354 ft | 0 kts | 13° |
| 2026-05-06 19:59 | 50.04267 | 8.55919 | 354 ft | 5 kts | 16° |
| 2026-05-06 19:59 | 50.04346 | 8.55930 | 359 ft | 13 kts | 351° |
| 2026-05-06 19:59 | 50.04420 | 8.55976 | 356 ft | 13 kts | 59° |